Seffner, FL

6:27 AM EDT on September 04, 2015 (GMT -0400)
APRSWXNET | | Change Station
CLOSE
Current Station
Personal Weather Station
Location: Seffner, FL
Elevation: 45 ft
Nearby Weather Stations

Elev 45 ft 27.99 °N, 82.27 °W | Updated 28 days ago

Partly Cloudy
Partly Cloudy
76 °F
Feels Like 76 °F
N
1
Wind Variable Wind from WNW
Gusts mph

Today
High -- | Low -- °F
--% Chance of Precip.
Yesterday
High -- | Low -- °F
Precip. -- in
7:09 AM 7:46 PM
Waning Gibbous, 61% visible
Pressure 29.95 in
Visibility 4.0 miles
Clouds Clear
Dew Point 76 °F
Humidity 100%
Rainfall in
Snow Depth Not available.
UV 0 out of 12
Pollen 4.20 out of 12
Air Quality Not available.
Flu Activity Not available.
METAR KVDF 041015Z AUTO 00000KT 4SM BR CLR 25/23 A2995 RMK AO2
Pressure 29.95 in
Visibility 4.0 miles
Clouds Clear
Dew Point 76 °F
Humidity 100%
Rainfall in
Snow Depth Not available.
UV 0 out of 12
Pollen 4.20 out of 12
Air Quality Not available.
Flu Activity Not available.
METAR KVDF 041015Z AUTO 00000KT 4SM BR CLR 25/23 A2995 RMK AO2

10-Day Weather Forecast

×

Almanac

Astronomy

Sep. 04, 2015 Rise Set
Actual Time
Civil Twilight
Nautical Twilight
Astronomical Twilight
Moon
Length of Visible Light
Length of Day
Tomorrow will be .
, % of the Moon is Illuminated

Today's Extremes

State Highs State Lows

Community

WunderPhotos

Upload Photos

1,852,146 photos uploaded!

WunderBlogs® & News

Nearby

Air Quality

  Air Quality AQ Index Pollutant
Not available.

Snow Depth

Station Depth Elevation

Earthquake Activity

City Distance Mag. Time & Date
Minimum magnitude displayed is 2.5.

Coastal Water Temperatures

Place Temperature

Stations

Nearby Weather Stations

Station Location Temp. Windchill Dew Point Humidity Wind Precip. Elev Updated Type